Meishomaru — JD3044 — position and weather

sailwx.info

Track history (hours):
 
Tides and Currents Weather Stations Pressure Air Temp Water Temp Dewpoint Dewpoint Depression Visibility Wind Speed Wind Dir Waves Ship Positions

Meishomaru

Last reported at 2018-Jan-22 00:00 UTC. Time now 2018-Jan-22 00:10 UTC.
Position N 34°57' E 136°40'.

Length 68 m; draft 2.6 m.

Type: Tanker. MMSI: 431001216.

Date/timePositionNaut miles runAvg speedWind from/ knotsBaromVisibWave heightAir tempDewpointWater temp
2018-Jan-22 00:00N 34°57' E 136°40'1 2.2
2018-Jan-21 23:31N 34°56' E 136°41'611.8
2018-Jan-21 23:00N 34°51' E 136°44'611.9
2018-Jan-21 22:30N 34°46' E 136°48'612.1
2018-Jan-21 21:59N 34°40' E 136°52'1013.1
2018-Jan-21 21:15N 34°34' E 137°00'2711.2
2018-Jan-21 18:53N 34°09' E 136°48'90 9.3
2018-Jan-21 09:09N 33°51' E 135°01'212.3
2018-Jan-21 09:00N 33°52' E 135°01'813.1
2018-Jan-21 08:24N 34°00' E 135°00'513.1
2018-Jan-21 08:00N 34°05' E 134°60'713.2
2018-Jan-21 07:30N 34°12' E 134°59'713.6
2018-Jan-21 07:01N 34°19' E 134°59'611.2
2018-Jan-21 06:30N 34°23' E 135°03'612.8
2018-Jan-21 06:00N 34°27' E 135°09'612.3
2018-Jan-21 05:30N 34°30' E 135°16'612.3
2018-Jan-21 05:00N 34°33' E 135°22'2 4.9
2018-Jan-21 04:30N 34°33' E 135°25'1 1.8
2018-Jan-21 03:59N 34°32' E 135°25'0 0.0
2018-Jan-21 03:29N 34°32' E 135°25'0 0.0
2018-Jan-21 02:59N 34°32' E 135°25'0 0.0
2018-Jan-21 02:29N 34°32' E 135°25'0 0.0
2018-Jan-21 01:59N 34°32' E 135°25'0 0.0
2018-Jan-21 01:29N 34°32' E 135°25'0 0.0
2018-Jan-21 00:59N 34°32' E 135°25'0 0.0
2018-Jan-21 00:29N 34°32' E 135°25'0 0.0
2018-Jan-20 23:59N 34°32' E 135°25'1 2.5
2018-Jan-20 23:30N 34°33' E 135°24'2 4.8
2018-Jan-20 23:00N 34°32' E 135°22'0 0.1
2018-Jan-20 22:29N 34°32' E 135°22'0 0.0
2018-Jan-20 21:59N 34°32' E 135°22'0 0.0
2018-Jan-20 21:29N 34°32' E 135°22'0 0.0
2018-Jan-20 20:59N 34°32' E 135°22'0 0.0
2018-Jan-20 20:29N 34°32' E 135°22'0 0.0
2018-Jan-20 19:59N 34°32' E 135°22'0 0.0
2018-Jan-20 19:29N 34°32' E 135°22'0 0.0
2018-Jan-20 18:59N 34°32' E 135°22'0 0.0
2018-Jan-20 18:29N 34°32' E 135°22'0 0.0
2018-Jan-20 17:59N 34°32' E 135°22'0 0.0
2018-Jan-20 17:29N 34°32' E 135°22'0 0.0
2018-Jan-20 16:59N 34°32' E 135°22'0 0.0
2018-Jan-20 16:29N 34°32' E 135°22'0 0.0
2018-Jan-20 15:59N 34°32' E 135°22'0 0.0
2018-Jan-20 15:29N 34°32' E 135°22'0 0.0
2018-Jan-20 14:59N 34°32' E 135°22'0 0.0
2018-Jan-20 14:29N 34°32' E 135°22'0 0.0
2018-Jan-20 13:59N 34°32' E 135°22'0 0.0
2018-Jan-20 13:29N 34°32' E 135°22'0 0.0
2018-Jan-20 12:59N 34°32' E 135°22'0 0.0
2018-Jan-20 12:29N 34°32' E 135°22'0 0.0
2018-Jan-20 11:59N 34°32' E 135°22'0 0.0
2018-Jan-20 11:30N 34°32' E 135°22'4 8.8
2018-Jan-20 11:00N 34°30' E 135°17'611.6
2018-Jan-20 10:30N 34°27' E 135°11'611.3
2018-Jan-20 10:00N 34°23' E 135°06'611.2
2018-Jan-20 09:30N 34°19' E 135°01'5 9.9
2018-Jan-20 09:00N 34°14' E 135°00'611.4
2018-Jan-20 08:30N 34°09' E 135°01'611.5
2018-Jan-20 08:00N 34°03' E 135°02'611.5
2018-Jan-20 07:30N 33°57' E 135°02'17510.0
2018-Jan-19 14:07N 34°34' E 138°29'212.3
2018-Jan-19 13:57N 34°34' E 138°31'612.3
2018-Jan-19 13:26N 34°35' E 138°39'812.5
2018-Jan-19 12:49N 34°35' E 138°48'411.5
2018-Jan-19 12:30N 34°36' E 138°53'510.8
2018-Jan-19 12:00N 34°38' E 138°59'612.1
2018-Jan-19 11:29N 34°43' E 139°03'612.7
2018-Jan-19 10:59N 34°48' E 139°07'611.9
2018-Jan-19 10:27N 34°54' E 139°12'712.0
2018-Jan-19 09:53N 34°57' E 139°18'512.1
2018-Jan-19 09:28N 34°60' E 139°24'511.3
2018-Jan-19 09:00N 35°02' E 139°30'611.8
2018-Jan-19 08:30N 35°05' E 139°36'612.5
2018-Jan-19 08:00N 35°08' E 139°42'612.1
2018-Jan-19 07:30N 35°13' E 139°46'611.4
2018-Jan-19 07:00N 35°19' E 139°43'611.3
2018-Jan-19 06:30N 35°24' E 139°43'612.2
2018-Jan-19 06:00N 35°28' E 139°49'712.2
2018-Jan-19 05:26N 35°31' E 139°57'510.9
2018-Jan-19 05:00N 35°31' E 140°02'0 0.0
2018-Jan-19 00:23N 35°31' E 140°02'1 2.7
2018-Jan-19 00:00N 35°31' E 140°01'0 0.2
2018-Jan-18 23:24N 35°31' E 140°01'0 0.0
2018-Jan-18 23:00N 35°31' E 140°01'0 0.0
2018-Jan-18 22:18N 35°31' E 140°01'0 0.0
2018-Jan-18 22:00N 35°31' E 140°01'0 0.0
2018-Jan-18 21:21N 35°31' E 140°01'0 0.0
2018-Jan-18 21:00N 35°31' E 140°01'0 0.0
2018-Jan-18 20:30N 35°31' E 140°01'0 0.0
2018-Jan-18 19:54N 35°31' E 140°01'0 0.0
2018-Jan-18 19:27N 35°31' E 140°01'0 0.0
2018-Jan-18 19:00N 35°31' E 140°01'0 0.0
2018-Jan-18 18:27N 35°31' E 140°01'0 0.0
2018-Jan-18 18:00N 35°31' E 140°01'0 0.0
2018-Jan-18 17:30N 35°31' E 140°01'0 0.0
2018-Jan-18 17:00N 35°31' E 140°01'0 0.0
2018-Jan-18 16:18N 35°31' E 140°01'0 0.0
2018-Jan-18 16:00N 35°31' E 140°01'0 0.1
2018-Jan-18 15:24N 35°31' E 140°01'0 0.1
2018-Jan-18 14:54N 35°31' E 140°01'0 0.1
2018-Jan-18 14:29N 35°31' E 140°01'0 0.0
2018-Jan-18 14:00N 35°31' E 140°01'0 0.1
2018-Jan-18 13:30N 35°31' E 140°01'0 0.0
2018-Jan-18 12:57N 35°31' E 140°01'0 0.1
2018-Jan-18 12:30N 35°31' E 140°01'0 0.0
2018-Jan-18 12:00N 35°31' E 140°01'0 0.0
2018-Jan-18 11:30N 35°31' E 140°01'0 0.0
2018-Jan-18 11:00N 35°31' E 140°01'2 3.7
2018-Jan-18 10:30N 35°30' E 139°59'611.8
2018-Jan-18 10:00N 35°28' E 139°52'611.8
2018-Jan-18 09:30N 35°25' E 139°47'611.7
2018-Jan-18 09:00N 35°19' E 139°44'611.5
2018-Jan-18 08:30N 35°14' E 139°47'612.3
2018-Jan-18 08:00N 35°08' E 139°46'611.6
2018-Jan-18 07:30N 35°03' E 139°42'612.1
2018-Jan-18 06:59N 34°59' E 139°36'1813.1
2018-Jan-18 05:39N 34°48' E 139°19'313.3
2018-Jan-18 05:25N 34°46' E 139°16'713.5
2018-Jan-18 04:53N 34°41' E 139°10'513.3
2018-Jan-18 04:30N 34°39' E 139°05'712.9
2018-Jan-18 03:59N 34°35' E 138°57'612.3
2018-Jan-18 03:30N 34°34' E 138°50'710.9
2018-Jan-18 02:53N 34°34' E 138°42'511.3
2018-Jan-18 02:27N 34°34' E 138°36'511.7
2018-Jan-18 02:00N 34°34' E 138°30'612.1
2018-Jan-18 01:28N 34°34' E 138°22'611.8
2018-Jan-18 01:00N 34°34' E 138°15'1612.8
2018-Jan-17 23:46N 34°31' E 137°56'  
2018-Jan-12 14:58N 35°29' E 139°56'0 0.0
2018-Jan-12 14:28N 35°29' E 139°56'0 0.0
2018-Jan-12 13:58N 35°29' E 139°56'0 0.0
2018-Jan-12 13:25N 35°29' E 139°56'0 0.0
2018-Jan-12 12:58N 35°29' E 139°56'0 0.0
2018-Jan-12 12:28N 35°29' E 139°56'0 0.0
2018-Jan-12 11:58N 35°29' E 139°56'0 0.0
2018-Jan-12 11:25N 35°29' E 139°56'0 0.0
2018-Jan-12 10:58N 35°29' E 139°56'0 0.0
2018-Jan-12 08:43N 35°29' E 139°56'0 0.0
2018-Jan-12 08:28N 35°29' E 139°56'0 0.0
2018-Jan-12 07:55N 35°29' E 139°56'1 1.5
2018-Jan-12 07:30N 35°29' E 139°55'611.5
2018-Jan-12 07:00N 35°26' E 139°49'611.7
2018-Jan-12 06:30N 35°21' E 139°45'511.0
2018-Jan-12 06:00N 35°16' E 139°47'611.9
2018-Jan-12 05:30N 35°10' E 139°47'611.5
2018-Jan-12 05:00N 35°04' E 139°45'2 3.9
2018-Jan-12 04:30N 35°06' E 139°44'510.6
2018-Jan-12 04:00N 35°11' E 139°45'611.6
2018-Jan-12 03:30N 35°17' E 139°45'612.0
2018-Jan-12 03:00N 35°22' E 139°42'612.2
2018-Jan-12 02:30N 35°28' E 139°46'4 7.4
2018-Jan-12 02:00N 35°31' E 139°45'  
Track history (hours):
 
Tides and Currents Weather Stations Pressure Air Temp Water Temp Dewpoint Dewpoint Depression Visibility Wind Speed Wind Dir Waves Ship Positions

Meishomaru

Last reported at 2018-Jan-22 00:00 UTC. Time now 2018-Jan-22 00:10 UTC.
Position N 34°57' E 136°40'.

Length 68 m; draft 2.6 m.

Type: Tanker. MMSI: 431001216.

Date/timePositionNaut miles runAvg speedWind from/ knotsBaromVisibWave heightAir tempDewpointWater temp
2018-Jan-22 00:00N 34°57' E 136°40'1 2.2
2018-Jan-21 23:31N 34°56' E 136°41'611.8
2018-Jan-21 23:00N 34°51' E 136°44'611.9
2018-Jan-21 22:30N 34°46' E 136°48'612.1
2018-Jan-21 21:59N 34°40' E 136°52'1013.1
2018-Jan-21 21:15N 34°34' E 137°00'2711.2
2018-Jan-21 18:53N 34°09' E 136°48'90 9.3
2018-Jan-21 09:09N 33°51' E 135°01'212.3
2018-Jan-21 09:00N 33°52' E 135°01'813.1
2018-Jan-21 08:24N 34°00' E 135°00'513.1
2018-Jan-21 08:00N 34°05' E 134°60'713.2
2018-Jan-21 07:30N 34°12' E 134°59'713.6
2018-Jan-21 07:01N 34°19' E 134°59'611.2
2018-Jan-21 06:30N 34°23' E 135°03'612.8
2018-Jan-21 06:00N 34°27' E 135°09'612.3
2018-Jan-21 05:30N 34°30' E 135°16'612.3
2018-Jan-21 05:00N 34°33' E 135°22'2 4.9
2018-Jan-21 04:30N 34°33' E 135°25'1 1.8
2018-Jan-21 03:59N 34°32' E 135°25'0 0.0
2018-Jan-21 03:29N 34°32' E 135°25'0 0.0
2018-Jan-21 02:59N 34°32' E 135°25'0 0.0
2018-Jan-21 02:29N 34°32' E 135°25'0 0.0
2018-Jan-21 01:59N 34°32' E 135°25'0 0.0
2018-Jan-21 01:29N 34°32' E 135°25'0 0.0
2018-Jan-21 00:59N 34°32' E 135°25'0 0.0
2018-Jan-21 00:29N 34°32' E 135°25'0 0.0
2018-Jan-20 23:59N 34°32' E 135°25'1 2.5
2018-Jan-20 23:30N 34°33' E 135°24'2 4.8
2018-Jan-20 23:00N 34°32' E 135°22'0 0.1
2018-Jan-20 22:29N 34°32' E 135°22'0 0.0
2018-Jan-20 21:59N 34°32' E 135°22'0 0.0
2018-Jan-20 21:29N 34°32' E 135°22'0 0.0
2018-Jan-20 20:59N 34°32' E 135°22'0 0.0
2018-Jan-20 20:29N 34°32' E 135°22'0 0.0
2018-Jan-20 19:59N 34°32' E 135°22'0 0.0
2018-Jan-20 19:29N 34°32' E 135°22'0 0.0
2018-Jan-20 18:59N 34°32' E 135°22'0 0.0
2018-Jan-20 18:29N 34°32' E 135°22'0 0.0
2018-Jan-20 17:59N 34°32' E 135°22'0 0.0
2018-Jan-20 17:29N 34°32' E 135°22'0 0.0
2018-Jan-20 16:59N 34°32' E 135°22'0 0.0
2018-Jan-20 16:29N 34°32' E 135°22'0 0.0
2018-Jan-20 15:59N 34°32' E 135°22'0 0.0
2018-Jan-20 15:29N 34°32' E 135°22'0 0.0
2018-Jan-20 14:59N 34°32' E 135°22'0 0.0
2018-Jan-20 14:29N 34°32' E 135°22'0 0.0
2018-Jan-20 13:59N 34°32' E 135°22'0 0.0
2018-Jan-20 13:29N 34°32' E 135°22'0 0.0
2018-Jan-20 12:59N 34°32' E 135°22'0 0.0
2018-Jan-20 12:29N 34°32' E 135°22'0 0.0
2018-Jan-20 11:59N 34°32' E 135°22'0 0.0
2018-Jan-20 11:30N 34°32' E 135°22'4 8.8
2018-Jan-20 11:00N 34°30' E 135°17'611.6
2018-Jan-20 10:30N 34°27' E 135°11'611.3
2018-Jan-20 10:00N 34°23' E 135°06'611.2
2018-Jan-20 09:30N 34°19' E 135°01'5 9.9
2018-Jan-20 09:00N 34°14' E 135°00'611.4
2018-Jan-20 08:30N 34°09' E 135°01'611.5
2018-Jan-20 08:00N 34°03' E 135°02'611.5
2018-Jan-20 07:30N 33°57' E 135°02'17510.0
2018-Jan-19 14:07N 34°34' E 138°29'212.3
2018-Jan-19 13:57N 34°34' E 138°31'612.3
2018-Jan-19 13:26N 34°35' E 138°39'812.5
2018-Jan-19 12:49N 34°35' E 138°48'411.5
2018-Jan-19 12:30N 34°36' E 138°53'510.8
2018-Jan-19 12:00N 34°38' E 138°59'612.1
2018-Jan-19 11:29N 34°43' E 139°03'612.7
2018-Jan-19 10:59N 34°48' E 139°07'611.9
2018-Jan-19 10:27N 34°54' E 139°12'712.0
2018-Jan-19 09:53N 34°57' E 139°18'512.1
2018-Jan-19 09:28N 34°60' E 139°24'511.3
2018-Jan-19 09:00N 35°02' E 139°30'611.8
2018-Jan-19 08:30N 35°05' E 139°36'612.5
2018-Jan-19 08:00N 35°08' E 139°42'612.1
2018-Jan-19 07:30N 35°13' E 139°46'611.4
2018-Jan-19 07:00N 35°19' E 139°43'611.3
2018-Jan-19 06:30N 35°24' E 139°43'612.2
2018-Jan-19 06:00N 35°28' E 139°49'712.2
2018-Jan-19 05:26N 35°31' E 139°57'510.9
2018-Jan-19 05:00N 35°31' E 140°02'0 0.0
2018-Jan-19 00:23N 35°31' E 140°02'1 2.7
2018-Jan-19 00:00N 35°31' E 140°01'0 0.2
2018-Jan-18 23:24N 35°31' E 140°01'0 0.0
2018-Jan-18 23:00N 35°31' E 140°01'0 0.0
2018-Jan-18 22:18N 35°31' E 140°01'0 0.0
2018-Jan-18 22:00N 35°31' E 140°01'0 0.0
2018-Jan-18 21:21N 35°31' E 140°01'0 0.0
2018-Jan-18 21:00N 35°31' E 140°01'0 0.0
2018-Jan-18 20:30N 35°31' E 140°01'0 0.0
2018-Jan-18 19:54N 35°31' E 140°01'0 0.0
2018-Jan-18 19:27N 35°31' E 140°01'0 0.0
2018-Jan-18 19:00N 35°31' E 140°01'0 0.0
2018-Jan-18 18:27N 35°31' E 140°01'0 0.0
2018-Jan-18 18:00N 35°31' E 140°01'0 0.0
2018-Jan-18 17:30N 35°31' E 140°01'0 0.0
2018-Jan-18 17:00N 35°31' E 140°01'0 0.0
2018-Jan-18 16:18N 35°31' E 140°01'0 0.0
2018-Jan-18 16:00N 35°31' E 140°01'0 0.1
2018-Jan-18 15:24N 35°31' E 140°01'0 0.1
2018-Jan-18 14:54N 35°31' E 140°01'0 0.1
2018-Jan-18 14:29N 35°31' E 140°01'0 0.0
2018-Jan-18 14:00N 35°31' E 140°01'0 0.1
2018-Jan-18 13:30N 35°31' E 140°01'0 0.0
2018-Jan-18 12:57N 35°31' E 140°01'0 0.1
2018-Jan-18 12:30N 35°31' E 140°01'0 0.0
2018-Jan-18 12:00N 35°31' E 140°01'0 0.0
2018-Jan-18 11:30N 35°31' E 140°01'0 0.0
2018-Jan-18 11:00N 35°31' E 140°01'2 3.7
2018-Jan-18 10:30N 35°30' E 139°59'611.8
2018-Jan-18 10:00N 35°28' E 139°52'611.8
2018-Jan-18 09:30N 35°25' E 139°47'611.7
2018-Jan-18 09:00N 35°19' E 139°44'611.5
2018-Jan-18 08:30N 35°14' E 139°47'612.3
2018-Jan-18 08:00N 35°08' E 139°46'611.6
2018-Jan-18 07:30N 35°03' E 139°42'612.1
2018-Jan-18 06:59N 34°59' E 139°36'1813.1
2018-Jan-18 05:39N 34°48' E 139°19'313.3
2018-Jan-18 05:25N 34°46' E 139°16'713.5
2018-Jan-18 04:53N 34°41' E 139°10'513.3
2018-Jan-18 04:30N 34°39' E 139°05'712.9
2018-Jan-18 03:59N 34°35' E 138°57'612.3
2018-Jan-18 03:30N 34°34' E 138°50'710.9
2018-Jan-18 02:53N 34°34' E 138°42'511.3
2018-Jan-18 02:27N 34°34' E 138°36'511.7
2018-Jan-18 02:00N 34°34' E 138°30'612.1
2018-Jan-18 01:28N 34°34' E 138°22'611.8
2018-Jan-18 01:00N 34°34' E 138°15'1612.8
2018-Jan-17 23:46N 34°31' E 137°56'  
2018-Jan-12 14:58N 35°29' E 139°56'0 0.0
2018-Jan-12 14:28N 35°29' E 139°56'0 0.0
2018-Jan-12 13:58N 35°29' E 139°56'0 0.0
2018-Jan-12 13:25N 35°29' E 139°56'0 0.0
2018-Jan-12 12:58N 35°29' E 139°56'0 0.0
2018-Jan-12 12:28N 35°29' E 139°56'0 0.0
2018-Jan-12 11:58N 35°29' E 139°56'0 0.0
2018-Jan-12 11:25N 35°29' E 139°56'0 0.0
2018-Jan-12 10:58N 35°29' E 139°56'0 0.0
2018-Jan-12 08:43N 35°29' E 139°56'0 0.0
2018-Jan-12 08:28N 35°29' E 139°56'0 0.0
2018-Jan-12 07:55N 35°29' E 139°56'1 1.5
2018-Jan-12 07:30N 35°29' E 139°55'611.5
2018-Jan-12 07:00N 35°26' E 139°49'611.7
2018-Jan-12 06:30N 35°21' E 139°45'511.0
2018-Jan-12 06:00N 35°16' E 139°47'611.9
2018-Jan-12 05:30N 35°10' E 139°47'611.5
2018-Jan-12 05:00N 35°04' E 139°45'2 3.9
2018-Jan-12 04:30N 35°06' E 139°44'510.6
2018-Jan-12 04:00N 35°11' E 139°45'611.6
2018-Jan-12 03:30N 35°17' E 139°45'612.0
2018-Jan-12 03:00N 35°22' E 139°42'612.2
2018-Jan-12 02:30N 35°28' E 139°46'4 7.4
2018-Jan-12 02:00N 35°31' E 139°45'  

Dump ship's entire track history